Philadelphia, Pennsylvania
Traffic Map
Current Weather Conditions
Philadelphia, Pennsylvania
Few Clouds
Few Clouds
34°
Feels Like: 27°
Wind Chill: 27° Ceiling: Unl
Heat Index: 34° Visibility: 10mi
Dew Point: 22° Wind: 9mph
Humidity: 61% Direction: 290° (WNW)
Pressure: 30.17in Gusts: 0mph
Raw Report DataKPHL 281054Z 29008KT 10SM FEW065 01/M06 A3017 RMK AO2 SLP216 T00111056 $
Traffic Incident Summary
Active as of:
Severity:
Category:
InformationThere was an issue retrieving the traffic information for this location. Please try a different location or try again shortly.
Advertisements
Track Severe Weather on mobile